sensor_id;sensor_type;location;lat;lon;timestamp;pressure;altitude;pressure_sealevel;temperature;humidity
47985;BME280;33753;52.912;-7.342;2023-04-08T00:01:09;100792.09;;;5.92;100.00
47985;BME280;33753;52.912;-7.342;2023-04-08T00:03:38;100792.31;;;5.88;100.00
47985;BME280;33753;52.912;-7.342;2023-04-08T00:06:06;100791.75;;;5.85;100.00
47985;BME280;33753;52.912;-7.342;2023-04-08T00:08:35;100790.03;;;5.84;100.00
47985;BME280;33753;52.912;-7.342;2023-04-08T00:11:05;100792.72;;;5.84;100.00
47985;BME280;33753;52.912;-7.342;2023-04-08T00:13:33;100792.59;;;5.85;100.00
47985;BME280;33753;52.912;-7.342;2023-04-08T00:16:01;100797.13;;;5.85;100.00
47985;BME280;33753;52.912;-7.342;2023-04-08T00:18:29;100787.22;;;5.85;100.00
47985;BME280;33753;52.912;-7.342;2023-04-08T00:20:57;100793.19;;;5.89;100.00
47985;BME280;33753;52.912;-7.342;2023-04-08T00:23:26;100790.38;;;5.91;100.00
47985;BME280;33753;52.912;-7.342;2023-04-08T00:25:54;100797.44;;;5.92;100.00
47985;BME280;33753;52.912;-7.342;2023-04-08T00:28:23;100794.88;;;5.90;100.00
47985;BME280;33753;52.912;-7.342;2023-04-08T00:30:51;100792.91;;;5.92;100.00
47985;BME280;33753;52.912;-7.342;2023-04-08T00:33:19;100794.50;;;5.95;100.00
47985;BME280;33753;52.912;-7.342;2023-04-08T00:35:48;100789.25;;;5.93;100.00
47985;BME280;33753;52.912;-7.342;2023-04-08T00:38:17;100785.84;;;5.91;100.00
47985;BME280;33753;52.912;-7.342;2023-04-08T00:40:45;100793.47;;;5.96;100.00
47985;BME280;33753;52.912;-7.342;2023-04-08T00:43:13;100793.63;;;5.94;100.00
47985;BME280;33753;52.912;-7.342;2023-04-08T00:45:43;100795.31;;;5.95;100.00
47985;BME280;33753;52.912;-7.342;2023-04-08T00:48:12;100793.75;;;5.93;100.00
47985;BME280;33753;52.912;-7.342;2023-04-08T00:50:41;100796.31;;;5.94;100.00
47985;BME280;33753;52.912;-7.342;2023-04-08T00:53:10;100803.16;;;5.98;100.00
47985;BME280;33753;52.912;-7.342;2023-04-08T00:55:39;100797.50;;;6.01;100.00
47985;BME280;33753;52.912;-7.342;2023-04-08T00:58:07;100794.13;;;5.99;100.00
47985;BME280;33753;52.912;-7.342;2023-04-08T01:00:36;100797.63;;;6.00;100.00
47985;BME280;33753;52.912;-7.342;2023-04-08T01:03:11;100802.41;;;5.96;100.00
47985;BME280;33753;52.912;-7.342;2023-04-08T01:05:44;100802.69;;;5.93;100.00
47985;BME280;33753;52.912;-7.342;2023-04-08T01:08:15;100800.97;;;5.92;100.00
47985;BME280;33753;52.912;-7.342;2023-04-08T01:10:44;100794.03;;;5.89;100.00
47985;BME280;33753;52.912;-7.342;2023-04-08T01:13:17;100792.59;;;5.85;100.00
47985;BME280;33753;52.912;-7.342;2023-04-08T01:15:47;100803.31;;;5.85;100.00
47985;BME280;33753;52.912;-7.342;2023-04-08T01:18:17;100803.59;;;5.82;100.00
47985;BME280;33753;52.912;-7.342;2023-04-08T01:20:46;100802.63;;;5.83;100.00
47985;BME280;33753;52.912;-7.342;2023-04-08T01:23:17;100809.56;;;5.86;100.00
47985;BME280;33753;52.912;-7.342;2023-04-08T01:25:49;100815.91;;;5.85;100.00
47985;BME280;33753;52.912;-7.342;2023-04-08T01:28:19;100831.03;;;5.86;100.00
47985;BME280;33753;52.912;-7.342;2023-04-08T01:30:48;100824.94;;;5.84;100.00
47985;BME280;33753;52.912;-7.342;2023-04-08T01:33:17;100820.53;;;5.83;100.00
47985;BME280;33753;52.912;-7.342;2023-04-08T01:35:47;100828.72;;;5.81;100.00
47985;BME280;33753;52.912;-7.342;2023-04-08T01:38:16;100826.19;;;5.80;100.00
47985;BME280;33753;52.912;-7.342;2023-04-08T01:40:47;100828.16;;;5.78;100.00
47985;BME280;33753;52.912;-7.342;2023-04-08T01:43:17;100826.72;;;5.74;100.00
47985;BME280;33753;52.912;-7.342;2023-04-08T01:45:46;100828.66;;;5.71;100.00
47985;BME280;33753;52.912;-7.342;2023-04-08T01:48:15;100832.47;;;5.69;100.00
47985;BME280;33753;52.912;-7.342;2023-04-08T01:50:43;100828.34;;;5.65;100.00
47985;BME280;33753;52.912;-7.342;2023-04-08T01:53:12;100829.72;;;5.59;100.00
47985;BME280;33753;52.912;-7.342;2023-04-08T01:55:40;100825.13;;;5.50;100.00
47985;BME280;33753;52.912;-7.342;2023-04-08T01:58:14;100826.13;;;5.49;100.00
47985;BME280;33753;52.912;-7.342;2023-04-08T02:00:47;100830.50;;;5.50;100.00
47985;BME280;33753;52.912;-7.342;2023-04-08T02:03:17;100824.28;;;5.49;100.00
47985;BME280;33753;52.912;-7.342;2023-04-08T02:05:48;100826.31;;;5.57;100.00
47985;BME280;33753;52.912;-7.342;2023-04-08T02:08:16;100826.91;;;5.61;100.00
47985;BME280;33753;52.912;-7.342;2023-04-08T02:10:45;100835.53;;;5.64;100.00
47985;BME280;33753;52.912;-7.342;2023-04-08T02:13:13;100825.53;;;5.66;100.00
47985;BME280;33753;52.912;-7.342;2023-04-08T02:15:42;100832.34;;;5.70;100.00
47985;BME280;33753;52.912;-7.342;2023-04-08T02:18:15;100827.81;;;5.71;100.00
47985;BME280;33753;52.912;-7.342;2023-04-08T02:20:49;100825.75;;;5.75;100.00
47985;BME280;33753;52.912;-7.342;2023-04-08T02:23:21;100823.63;;;5.78;100.00
47985;BME280;33753;52.912;-7.342;2023-04-08T02:25:54;100821.81;;;5.79;100.00
47985;BME280;33753;52.912;-7.342;2023-04-08T02:28:25;100827.88;;;5.81;100.00
47985;BME280;33753;52.912;-7.342;2023-04-08T02:30:54;100825.91;;;5.83;100.00
47985;BME280;33753;52.912;-7.342;2023-04-08T02:33:26;100825.69;;;5.86;100.00
47985;BME280;33753;52.912;-7.342;2023-04-08T02:35:55;100818.31;;;5.88;100.00
47985;BME280;33753;52.912;-7.342;2023-04-08T02:38:24;100817.50;;;5.87;100.00
47985;BME280;33753;52.912;-7.342;2023-04-08T02:40:55;100818.59;;;5.85;100.00
47985;BME280;33753;52.912;-7.342;2023-04-08T02:43:24;100816.63;;;5.87;100.00
47985;BME280;33753;52.912;-7.342;2023-04-08T02:45:57;100812.13;;;5.87;100.00
47985;BME280;33753;52.912;-7.342;2023-04-08T02:48:30;100819.44;;;5.85;100.00
47985;BME280;33753;52.912;-7.342;2023-04-08T02:50:58;100818.06;;;5.91;100.00
47985;BME280;33753;52.912;-7.342;2023-04-08T02:53:26;100805.59;;;5.90;100.00
47985;BME280;33753;52.912;-7.342;2023-04-08T02:55:55;100805.38;;;5.93;100.00
47985;BME280;33753;52.912;-7.342;2023-04-08T02:58:23;100814.13;;;5.95;100.00
47985;BME280;33753;52.912;-7.342;2023-04-08T03:00:51;100804.03;;;5.99;100.00
47985;BME280;33753;52.912;-7.342;2023-04-08T03:03:19;100805.56;;;6.01;100.00
47985;BME280;33753;52.912;-7.342;2023-04-08T03:05:55;100800.19;;;6.01;100.00
47985;BME280;33753;52.912;-7.342;2023-04-08T03:08:23;100811.53;;;6.05;100.00
47985;BME280;33753;52.912;-7.342;2023-04-08T03:10:51;100800.94;;;6.03;100.00
47985;BME280;33753;52.912;-7.342;2023-04-08T03:13:19;100804.59;;;6.02;100.00
47985;BME280;33753;52.912;-7.342;2023-04-08T03:15:47;100811.06;;;6.00;100.00
47985;BME280;33753;52.912;-7.342;2023-04-08T03:18:16;100809.59;;;5.96;100.00
47985;BME280;33753;52.912;-7.342;2023-04-08T03:20:44;100807.31;;;5.91;100.00
47985;BME280;33753;52.912;-7.342;2023-04-08T03:23:14;100805.88;;;5.87;100.00
47985;BME280;33753;52.912;-7.342;2023-04-08T03:25:42;100811.97;;;5.89;100.00
47985;BME280;33753;52.912;-7.342;2023-04-08T03:28:10;100808.69;;;5.85;100.00
47985;BME280;33753;52.912;-7.342;2023-04-08T03:30:38;100816.75;;;5.85;100.00
47985;BME280;33753;52.912;-7.342;2023-04-08T03:33:07;100805.31;;;5.83;100.00
47985;BME280;33753;52.912;-7.342;2023-04-08T03:35:36;100810.81;;;5.82;100.00
47985;BME280;33753;52.912;-7.342;2023-04-08T03:38:05;100805.56;;;5.80;100.00
47985;BME280;33753;52.912;-7.342;2023-04-08T03:40:34;100805.56;;;5.80;100.00
47985;BME280;33753;52.912;-7.342;2023-04-08T03:43:03;100813.50;;;5.82;100.00
47985;BME280;33753;52.912;-7.342;2023-04-08T03:45:32;100809.09;;;5.81;100.00
47985;BME280;33753;52.912;-7.342;2023-04-08T03:48:00;100815.44;;;5.80;100.00
47985;BME280;33753;52.912;-7.342;2023-04-08T03:50:29;100810.69;;;5.83;100.00
47985;BME280;33753;52.912;-7.342;2023-04-08T03:52:57;100816.88;;;5.84;100.00
47985;BME280;33753;52.912;-7.342;2023-04-08T03:55:25;100818.88;;;5.82;100.00
47985;BME280;33753;52.912;-7.342;2023-04-08T03:57:54;100818.88;;;5.82;100.00
47985;BME280;33753;52.912;-7.342;2023-04-08T04:00:23;100820.81;;;5.80;100.00
47985;BME280;33753;52.912;-7.342;2023-04-08T04:02:51;100817.84;;;5.83;100.00
47985;BME280;33753;52.912;-7.342;2023-04-08T04:05:21;100821.41;;;5.83;100.00
47985;BME280;33753;52.912;-7.342;2023-04-08T04:07:49;100825.91;;;5.83;100.00
47985;BME280;33753;52.912;-7.342;2023-04-08T04:10:17;100828.16;;;5.78;100.00
47985;BME280;33753;52.912;-7.342;2023-04-08T04:12:45;100822.06;;;5.76;100.00
47985;BME280;33753;52.912;-7.342;2023-04-08T04:15:16;100819.13;;;5.79;100.00
47985;BME280;33753;52.912;-7.342;2023-04-08T04:17:46;100821.06;;;5.77;100.00
47985;BME280;33753;52.912;-7.342;2023-04-08T04:20:14;100806.69;;;5.78;100.00
47985;BME280;33753;52.912;-7.342;2023-04-08T04:22:42;100802.28;;;5.77;100.00
47985;BME280;33753;52.912;-7.342;2023-04-08T04:25:11;100801.44;;;5.76;100.00
47985;BME280;33753;52.912;-7.342;2023-04-08T04:27:39;100799.47;;;5.78;100.00
47985;BME280;33753;52.912;-7.342;2023-04-08T04:30:07;100793.97;;;5.80;100.00
47985;BME280;33753;52.912;-7.342;2023-04-08T04:32:37;100792.28;;;5.79;100.00
47985;BME280;33753;52.912;-7.342;2023-04-08T04:35:06;100792.03;;;5.82;100.00
47985;BME280;33753;52.912;-7.342;2023-04-08T04:37:34;100791.00;;;5.83;100.00
47985;BME280;33753;52.912;-7.342;2023-04-08T04:40:03;100784.66;;;5.84;100.00
47985;BME280;33753;52.912;-7.342;2023-04-08T04:42:32;100788.72;;;5.78;100.00
47985;BME280;33753;52.912;-7.342;2023-04-08T04:45:00;100781.00;;;5.85;100.00
47985;BME280;33753;52.912;-7.342;2023-04-08T04:47:28;100785.13;;;5.89;100.00
47985;BME280;33753;52.912;-7.342;2023-04-08T04:49:59;100791.75;;;5.85;100.00
47985;BME280;33753;52.912;-7.342;2023-04-08T04:52:28;100787.81;;;5.89;100.00
47985;BME280;33753;52.912;-7.342;2023-04-08T04:54:56;100795.41;;;5.84;100.00
47985;BME280;33753;52.912;-7.342;2023-04-08T04:57:24;100788.09;;;5.86;100.00
47985;BME280;33753;52.912;-7.342;2023-04-08T04:59:52;100784.94;;;5.81;100.00
47985;BME280;33753;52.912;-7.342;2023-04-08T05:02:21;100790.59;;;5.78;100.00
47985;BME280;33753;52.912;-7.342;2023-04-08T05:04:49;100786.91;;;5.79;100.00
47985;BME280;33753;52.912;-7.342;2023-04-08T05:07:20;100783.22;;;5.80;100.00
47985;BME280;33753;52.912;-7.342;2023-04-08T05:09:48;100782.97;;;5.83;100.00
47985;BME280;33753;52.912;-7.342;2023-04-08T05:12:16;100783.22;;;5.80;100.00
47985;BME280;33753;52.912;-7.342;2023-04-08T05:14:46;100789.47;;;5.80;100.00
47985;BME280;33753;52.912;-7.342;2023-04-08T05:17:14;100794.69;;;5.82;100.00
47985;BME280;33753;52.912;-7.342;2023-04-08T05:19:42;100799.34;;;5.80;100.00
47985;BME280;33753;52.912;-7.342;2023-04-08T05:22:11;100808.75;;;5.74;100.00
47985;BME280;33753;52.912;-7.342;2023-04-08T05:24:40;100800.16;;;5.70;100.00
47985;BME280;33753;52.912;-7.342;2023-04-08T05:27:09;100795.75;;;5.69;100.00
47985;BME280;33753;52.912;-7.342;2023-04-08T05:29:37;100796.72;;;5.68;100.00
47985;BME280;33753;52.912;-7.342;2023-04-08T05:32:05;100801.94;;;5.70;100.00
47985;BME280;33753;52.912;-7.342;2023-04-08T05:34:34;100799.13;;;5.71;100.00
47985;BME280;33753;52.912;-7.342;2023-04-08T05:37:02;100808.47;;;5.67;100.00
47985;BME280;33753;52.912;-7.342;2023-04-08T05:39:30;100809.16;;;5.69;100.00
47985;BME280;33753;52.912;-7.342;2023-04-08T05:42:00;100812.25;;;5.65;100.00
47985;BME280;33753;52.912;-7.342;2023-04-08T05:44:28;100814.47;;;5.60;100.00
47985;BME280;33753;52.912;-7.342;2023-04-08T05:46:57;100818.13;;;5.59;100.00
47985;BME280;33753;52.912;-7.342;2023-04-08T05:49:26;100813.63;;;5.59;100.00
47985;BME280;33753;52.912;-7.342;2023-04-08T05:51:54;100815.56;;;5.57;100.00
47985;BME280;33753;52.912;-7.342;2023-04-08T05:54:22;100828.28;;;5.55;100.00
47985;BME280;33753;52.912;-7.342;2023-04-08T05:56:50;100835.34;;;5.56;100.00
47985;BME280;33753;52.912;-7.342;2023-04-08T05:59:22;100839.84;;;5.56;100.00
47985;BME280;33753;52.912;-7.342;2023-04-08T06:01:50;100836.47;;;5.53;100.00
47985;BME280;33753;52.912;-7.342;2023-04-08T06:04:18;100844.38;;;5.55;100.00
47985;BME280;33753;52.912;-7.342;2023-04-08T06:06:47;100844.38;;;5.55;100.00
47985;BME280;33753;52.912;-7.342;2023-04-08T06:09:15;100842.09;;;5.50;100.00
47985;BME280;33753;52.912;-7.342;2023-04-08T06:11:43;100836.84;;;5.49;100.00
47985;BME280;33753;52.912;-7.342;2023-04-08T06:14:13;100829.03;;;5.46;100.00
47985;BME280;33753;52.912;-7.342;2023-04-08T06:16:43;100842.22;;;5.49;100.00
47985;BME280;33753;52.912;-7.342;2023-04-08T06:19:11;100834.16;;;5.49;100.00
47985;BME280;33753;52.912;-7.342;2023-04-08T06:21:40;100853.41;;;5.54;100.00
47985;BME280;33753;52.912;-7.342;2023-04-08T06:24:08;100852.03;;;5.60;100.00
47985;BME280;33753;52.912;-7.342;2023-04-08T06:26:36;100857.13;;;5.63;100.00
47985;BME280;33753;52.912;-7.342;2023-04-08T06:29:04;100861.13;;;5.68;100.00
47985;BME280;33753;52.912;-7.342;2023-04-08T06:31:33;100862.44;;;5.74;100.00
47985;BME280;33753;52.912;-7.342;2023-04-08T06:34:03;100863.50;;;5.83;100.00
47985;BME280;33753;52.912;-7.342;2023-04-08T06:36:32;100866.38;;;5.91;100.00
47985;BME280;33753;52.912;-7.342;2023-04-08T06:39:00;100865.78;;;5.99;100.00
47985;BME280;33753;52.912;-7.342;2023-04-08T06:41:28;100861.94;;;6.01;100.00
47985;BME280;33753;52.912;-7.342;2023-04-08T06:44:03;100866.97;;;6.16;100.00
47985;BME280;33753;52.912;-7.342;2023-04-08T06:46:31;100868.47;;;6.30;100.00
47985;BME280;33753;52.912;-7.342;2023-04-08T06:49:00;100871.41;;;6.48;100.00
47985;BME280;33753;52.912;-7.342;2023-04-08T06:51:31;100872.47;;;6.66;100.00
47985;BME280;33753;52.912;-7.342;2023-04-08T06:53:59;100883.81;;;6.80;100.00
47985;BME280;33753;52.912;-7.342;2023-04-08T06:56:28;100878.47;;;6.89;100.00
47985;BME280;33753;52.912;-7.342;2023-04-08T06:58:56;100876.78;;;6.98;100.00
47985;BME280;33753;52.912;-7.342;2023-04-08T07:01:24;100871.31;;;7.09;100.00
47985;BME280;33753;52.912;-7.342;2023-04-08T07:03:53;100873.47;;;7.35;100.00
47985;BME280;33753;52.912;-7.342;2023-04-08T07:06:21;100867.81;;;7.58;100.00
47985;BME280;33753;52.912;-7.342;2023-04-08T07:08:51;100871.72;;;7.93;100.00
47985;BME280;33753;52.912;-7.342;2023-04-08T07:11:19;100879.63;;;8.24;100.00
47985;BME280;33753;52.912;-7.342;2023-04-08T07:13:47;100878.19;;;8.29;100.00
47985;BME280;33753;52.912;-7.342;2023-04-08T07:16:16;100878.16;;;8.39;100.00
47985;BME280;33753;52.912;-7.342;2023-04-08T07:18:44;100869.06;;;8.40;100.00
47985;BME280;33753;52.912;-7.342;2023-04-08T07:21:13;100862.53;;;8.43;100.00
47985;BME280;33753;52.912;-7.342;2023-04-08T07:23:43;100861.53;;;8.54;100.00
47985;BME280;33753;52.912;-7.342;2023-04-08T07:26:13;100858.22;;;8.60;100.00
47985;BME280;33753;52.912;-7.342;2023-04-08T07:28:41;100857.91;;;8.63;100.00
47985;BME280;33753;52.912;-7.342;2023-04-08T07:31:10;100852.78;;;8.70;100.00
47985;BME280;33753;52.912;-7.342;2023-04-08T07:33:38;100857.84;;;8.82;100.00
47985;BME280;33753;52.912;-7.342;2023-04-08T07:36:07;100847.34;;;8.79;100.00
47985;BME280;33753;52.912;-7.342;2023-04-08T07:38:36;100856.63;;;8.95;100.00
47985;BME280;33753;52.912;-7.342;2023-04-08T07:41:04;100849.47;;;9.04;100.00
47985;BME280;33753;52.912;-7.342;2023-04-08T07:43:34;100849.13;;;9.16;100.00
47985;BME280;33753;52.912;-7.342;2023-04-08T07:46:03;100854.59;;;9.25;100.00
47985;BME280;33753;52.912;-7.342;2023-04-08T07:48:32;100847.75;;;9.30;100.00
47985;BME280;33753;52.912;-7.342;2023-04-08T07:51:04;100854.13;;;9.29;100.00
47985;BME280;33753;52.912;-7.342;2023-04-08T07:53:36;100849.81;;;9.37;100.00
47985;BME280;33753;52.912;-7.342;2023-04-08T07:56:09;100855.47;;;9.43;100.00
47985;BME280;33753;52.912;-7.342;2023-04-08T07:58:39;100855.63;;;9.42;100.00
47985;BME280;33753;52.912;-7.342;2023-04-08T08:01:15;100852.22;;;9.58;100.00
47985;BME280;33753;52.912;-7.342;2023-04-08T08:03:43;100851.56;;;9.46;100.00
47985;BME280;33753;52.912;-7.342;2023-04-08T08:06:14;100847.41;;;9.51;100.00
47985;BME280;33753;52.912;-7.342;2023-04-08T08:08:42;100852.72;;;9.61;100.00
47985;BME280;33753;52.912;-7.342;2023-04-08T08:11:10;100847.00;;;9.64;100.00
47985;BME280;33753;52.912;-7.342;2023-04-08T08:13:40;100847.25;;;9.71;100.00
47985;BME280;33753;52.912;-7.342;2023-04-08T08:16:08;100847.47;;;9.78;100.00
47985;BME280;33753;52.912;-7.342;2023-04-08T08:18:37;100843.53;;;9.72;100.00
47985;BME280;33753;52.912;-7.342;2023-04-08T08:21:06;100847.38;;;9.88;100.00
47985;BME280;33753;52.912;-7.342;2023-04-08T08:23:35;100843.13;;;9.85;100.00
47985;BME280;33753;52.912;-7.342;2023-04-08T08:26:04;100848.44;;;9.95;100.00
47985;BME280;33753;52.912;-7.342;2023-04-08T08:28:33;100831.47;;;9.84;100.00
47985;BME280;33753;52.912;-7.342;2023-04-08T08:31:03;100839.13;;;9.89;100.00
47985;BME280;33753;52.912;-7.342;2023-04-08T08:33:32;100832.59;;;10.00;100.00
47985;BME280;33753;52.912;-7.342;2023-04-08T08:36:01;100826.09;;;10.11;100.00
47985;BME280;33753;52.912;-7.342;2023-04-08T08:38:30;100830.34;;;10.13;100.00
47985;BME280;33753;52.912;-7.342;2023-04-08T08:40:59;100834.75;;;10.23;100.00
47985;BME280;33753;52.912;-7.342;2023-04-08T08:43:29;100822.91;;;10.15;100.00
47985;BME280;33753;52.912;-7.342;2023-04-08T08:45:59;100829.34;;;10.23;100.00
47985;BME280;33753;52.912;-7.342;2023-04-08T08:48:29;100817.81;;;10.12;100.00
47985;BME280;33753;52.912;-7.342;2023-04-08T08:50:58;100823.38;;;10.11;100.00
47985;BME280;33753;52.912;-7.342;2023-04-08T08:53:28;100833.59;;;10.25;100.00
47985;BME280;33753;52.912;-7.342;2023-04-08T08:55:59;100837.66;;;10.03;100.00
47985;BME280;33753;52.912;-7.342;2023-04-08T08:58:30;100823.06;;;10.14;100.00
47985;BME280;33753;52.912;-7.342;2023-04-08T09:00:59;100818.50;;;10.14;100.00
47985;BME280;33753;52.912;-7.342;2023-04-08T09:03:29;100832.75;;;10.25;100.00
47985;BME280;33753;52.912;-7.342;2023-04-08T09:05:58;100821.41;;;10.21;100.00
47985;BME280;33753;52.912;-7.342;2023-04-08T09:08:27;100823.75;;;10.42;100.00
47985;BME280;33753;52.912;-7.342;2023-04-08T09:11:09;100824.84;;;10.58;100.00
47985;BME280;33753;52.912;-7.342;2023-04-08T09:13:38;100808.69;;;10.82;100.00
47985;BME280;33753;52.912;-7.342;2023-04-08T09:16:07;100812.28;;;10.99;100.00
47985;BME280;33753;52.912;-7.342;2023-04-08T09:18:37;100813.00;;;11.18;100.00
47985;BME280;33753;52.912;-7.342;2023-04-08T09:21:06;100811.13;;;11.18;100.00
47985;BME280;33753;52.912;-7.342;2023-04-08T09:23:38;100806.91;;;11.24;100.00
47985;BME280;33753;52.912;-7.342;2023-04-08T09:26:07;100801.84;;;11.21;100.00
47985;BME280;33753;52.912;-7.342;2023-04-08T09:28:36;100799.63;;;11.33;100.00
47985;BME280;33753;52.912;-7.342;2023-04-08T09:31:20;100810.31;;;11.43;100.00
47985;BME280;33753;52.912;-7.342;2023-04-08T09:33:52;100807.44;;;11.28;100.00
47985;BME280;33753;52.912;-7.342;2023-04-08T09:36:20;100811.34;;;11.66;100.00
47985;BME280;33753;52.912;-7.342;2023-04-08T09:38:49;100810.47;;;11.82;100.00
47985;BME280;33753;52.912;-7.342;2023-04-08T09:41:17;100817.59;;;11.83;100.00
47985;BME280;33753;52.912;-7.342;2023-04-08T09:43:47;100816.25;;;11.63;100.00
47985;BME280;33753;52.912;-7.342;2023-04-08T09:46:17;100821.66;;;11.63;100.00
47985;BME280;33753;52.912;-7.342;2023-04-08T09:48:48;100805.41;;;11.46;100.00
47985;BME280;33753;52.912;-7.342;2023-04-08T09:51:18;100816.56;;;11.43;100.00
47985;BME280;33753;52.912;-7.342;2023-04-08T09:53:52;100822.53;;;11.63;100.00
47985;BME280;33753;52.912;-7.342;2023-04-08T09:56:22;100829.78;;;11.71;100.00
47985;BME280;33753;52.912;-7.342;2023-04-08T09:58:53;100820.31;;;11.75;100.00
47985;BME280;33753;52.912;-7.342;2023-04-08T10:01:23;100826.06;;;11.97;100.00
47985;BME280;33753;52.912;-7.342;2023-04-08T10:03:54;100824.66;;;12.17;100.00
47985;BME280;33753;52.912;-7.342;2023-04-08T10:06:27;100816.88;;;12.22;100.00
47985;BME280;33753;52.912;-7.342;2023-04-08T10:08:57;100830.41;;;12.31;100.00
47985;BME280;33753;52.912;-7.342;2023-04-08T10:11:26;100810.75;;;12.28;100.00
47985;BME280;33753;52.912;-7.342;2023-04-08T10:13:54;100823.66;;;12.18;100.00
47985;BME280;33753;52.912;-7.342;2023-04-08T10:16:23;100814.81;;;12.24;100.00
47985;BME280;33753;52.912;-7.342;2023-04-08T10:18:53;100818.13;;;12.51;100.00
47985;BME280;33753;52.912;-7.342;2023-04-08T10:24:09;100810.41;;;12.71;100.00
47985;BME280;33753;52.912;-7.342;2023-04-08T10:26:38;100812.25;;;12.79;100.00
47985;BME280;33753;52.912;-7.342;2023-04-08T10:29:29;100818.38;;;12.73;100.00
47985;BME280;33753;52.912;-7.342;2023-04-08T10:31:57;100794.34;;;12.61;100.00
47985;BME280;33753;52.912;-7.342;2023-04-08T10:34:25;100814.41;;;12.52;100.00
47985;BME280;33753;52.912;-7.342;2023-04-08T10:36:54;100814.41;;;12.44;100.00
47985;BME280;33753;52.912;-7.342;2023-04-08T10:39:26;100799.34;;;12.41;100.00
47985;BME280;33753;52.912;-7.342;2023-04-08T10:41:54;100798.47;;;12.49;100.00
47985;BME280;33753;52.912;-7.342;2023-04-08T10:44:23;100787.13;;;12.37;100.00
47985;BME280;33753;52.912;-7.342;2023-04-08T10:46:52;100781.38;;;12.40;100.00
47985;BME280;33753;52.912;-7.342;2023-04-08T10:49:21;100790.03;;;12.36;100.00
47985;BME280;33753;52.912;-7.342;2023-04-08T10:51:50;100790.09;;;12.27;100.00
47985;BME280;33753;52.912;-7.342;2023-04-08T10:54:18;100787.47;;;12.42;100.00
47985;BME280;33753;52.912;-7.342;2023-04-08T10:56:48;100790.25;;;12.66;100.00
47985;BME280;33753;52.912;-7.342;2023-04-08T10:59:26;100794.63;;;12.75;100.00
47985;BME280;33753;52.912;-7.342;2023-04-08T11:01:54;100795.25;;;12.85;100.00
47985;BME280;33753;52.912;-7.342;2023-04-08T11:04:24;100787.22;;;12.60;100.00
47985;BME280;33753;52.912;-7.342;2023-04-08T11:06:53;100792.75;;;12.75;100.00
47985;BME280;33753;52.912;-7.342;2023-04-08T11:09:21;100783.59;;;12.76;100.00
47985;BME280;33753;52.912;-7.342;2023-04-08T11:11:51;100790.53;;;12.79;100.00
47985;BME280;33753;52.912;-7.342;2023-04-08T11:14:19;100796.94;;;12.86;100.00
47985;BME280;33753;52.912;-7.342;2023-04-08T11:16:48;100798.31;;;12.82;100.00
47985;BME280;33753;52.912;-7.342;2023-04-08T11:19:16;100797.56;;;12.96;100.00
47985;BME280;33753;52.912;-7.342;2023-04-08T11:21:44;100786.19;;;12.93;100.00
47985;BME280;33753;52.912;-7.342;2023-04-08T11:24:13;100791.84;;;12.83;100.00
47985;BME280;33753;52.912;-7.342;2023-04-08T11:26:42;100791.81;;;12.91;100.00
47985;BME280;33753;52.912;-7.342;2023-04-08T11:29:12;100792.59;;;13.00;100.00
47985;BME280;33753;52.912;-7.342;2023-04-08T11:31:41;100796.00;;;13.25;100.00
47985;BME280;33753;52.912;-7.342;2023-04-08T11:34:10;100790.19;;;13.37;100.00
47985;BME280;33753;52.912;-7.342;2023-04-08T11:36:39;100780.63;;;13.41;100.00
47985;BME280;33753;52.912;-7.342;2023-04-08T11:39:08;100780.56;;;13.49;100.00
47985;BME280;33753;52.912;-7.342;2023-04-08T11:41:38;100780.56;;;13.49;100.00
47985;BME280;33753;52.912;-7.342;2023-04-08T11:44:07;100783.06;;;13.74;100.00
47985;BME280;33753;52.912;-7.342;2023-04-08T11:46:36;100782.69;;;13.77;100.00
47985;BME280;33753;52.912;-7.342;2023-04-08T11:49:07;100776.50;;;13.83;100.00
47985;BME280;33753;52.912;-7.342;2023-04-08T11:54:30;100787.38;;;13.83;100.00
47985;BME280;33753;52.912;-7.342;2023-04-08T11:56:59;100779.78;;;13.78;100.00
47985;BME280;33753;52.912;-7.342;2023-04-08T11:59:28;100774.72;;;13.75;100.00
47985;BME280;33753;52.912;-7.342;2023-04-08T12:01:58;100779.03;;;13.70;100.00
47985;BME280;33753;52.912;-7.342;2023-04-08T12:04:27;100776.03;;;13.79;100.00
47985;BME280;33753;52.912;-7.342;2023-04-08T12:06:56;100774.84;;;13.82;100.00
47985;BME280;33753;52.912;-7.342;2023-04-08T12:09:24;100772.31;;;13.57;100.00
47985;BME280;33753;52.912;-7.342;2023-04-08T12:11:53;100778.63;;;13.58;100.00
47985;BME280;33753;52.912;-7.342;2023-04-08T12:14:22;100767.13;;;13.71;100.00
47985;BME280;33753;52.912;-7.342;2023-04-08T12:16:53;100771.63;;;13.63;100.00
47985;BME280;33753;52.912;-7.342;2023-04-08T12:19:23;100768.78;;;13.57;100.00
47985;BME280;33753;52.912;-7.342;2023-04-08T12:21:51;100784.09;;;13.73;100.00
47985;BME280;33753;52.912;-7.342;2023-04-08T12:24:19;100770.72;;;13.86;100.00
47985;BME280;33753;52.912;-7.342;2023-04-08T12:26:48;100770.41;;;13.96;100.00
47985;BME280;33753;52.912;-7.342;2023-04-08T12:29:16;100763.41;;;14.02;100.00
47985;BME280;33753;52.912;-7.342;2023-04-08T12:31:44;100766.41;;;14.07;100.00
47985;BME280;33753;52.912;-7.342;2023-04-08T12:34:12;100754.22;;;14.03;100.00
47985;BME280;33753;52.912;-7.342;2023-04-08T12:36:45;100757.03;;;14.24;100.00
47985;BME280;33753;52.912;-7.342;2023-04-08T12:39:18;100751.09;;;14.35;100.00
47985;BME280;33753;52.912;-7.342;2023-04-08T12:41:51;100772.63;;;14.30;100.00
47985;BME280;33753;52.912;-7.342;2023-04-08T12:44:20;100755.34;;;14.23;100.00
47985;BME280;33753;52.912;-7.342;2023-04-08T12:46:54;100751.78;;;14.38;100.00
47985;BME280;33753;52.912;-7.342;2023-04-08T12:49:24;100754.75;;;14.43;100.00
47985;BME280;33753;52.912;-7.342;2023-04-08T12:51:57;100756.06;;;14.47;100.00